createdAt,value
2022-09-17T00:00:37.156Z,1006.22
2022-09-17T00:01:36.449Z,1006.20
2022-09-17T00:02:36.924Z,1006.21
2022-09-17T00:03:36.868Z,1006.19
2022-09-17T00:04:36.861Z,1006.22
2022-09-17T00:05:36.840Z,1006.22
2022-09-17T00:06:36.140Z,1006.23
2022-09-17T00:07:37.110Z,1006.24
2022-09-17T00:08:36.120Z,1006.23
2022-09-17T00:09:36.179Z,1006.20
2022-09-17T00:10:36.802Z,1006.23
2022-09-17T00:11:36.780Z,1006.24
2022-09-17T00:12:36.780Z,1006.23
2022-09-17T00:13:36.844Z,1006.23
2022-09-17T00:14:36.753Z,1006.24
2022-09-17T00:15:36.742Z,1006.22
2022-09-17T00:16:36.130Z,1006.26
2022-09-17T00:17:36.713Z,1006.25
2022-09-17T00:18:36.015Z,1006.28
2022-09-17T00:19:36.173Z,1006.28
2022-09-17T00:20:36.684Z,1006.29
2022-09-17T00:21:36.663Z,1006.25
2022-09-17T00:22:35.973Z,1006.26
2022-09-17T00:23:35.955Z,1006.26
2022-09-17T00:24:35.953Z,1006.31
2022-09-17T00:25:36.622Z,1006.30
2022-09-17T00:26:36.624Z,1006.35
2022-09-17T00:27:35.936Z,1006.32
2022-09-17T00:28:36.594Z,1006.39
2022-09-17T00:29:35.975Z,1006.35
2022-09-17T00:30:35.905Z,1006.36
2022-09-17T00:31:36.089Z,1006.33
2022-09-17T00:32:35.904Z,1006.29
2022-09-17T00:33:36.555Z,1006.31
2022-09-17T00:34:35.845Z,1006.31
2022-09-17T00:35:35.840Z,1006.31
2022-09-17T00:36:36.539Z,1006.36
2022-09-17T00:37:35.947Z,1006.35
2022-09-17T00:38:36.494Z,1006.34
2022-09-17T00:39:37.196Z,1006.40
2022-09-17T00:40:35.818Z,1006.34
2022-09-17T00:41:35.758Z,1006.33
2022-09-17T00:42:35.756Z,1006.30
2022-09-17T00:43:36.456Z,1006.31
2022-09-17T00:44:35.761Z,1006.31
2022-09-17T00:45:36.410Z,1006.30
2022-09-17T00:46:35.814Z,1006.34
2022-09-17T00:47:36.391Z,1006.34
2022-09-17T00:48:36.381Z,1006.33
2022-09-17T00:49:35.811Z,1006.32
2022-09-17T00:50:36.352Z,1006.33
2022-09-17T00:51:37.092Z,1006.40
2022-09-17T00:52:36.350Z,1006.41
2022-09-17T00:53:35.632Z,1006.47
2022-09-17T00:54:35.630Z,1006.41
2022-09-17T00:55:36.301Z,1006.43
2022-09-17T00:56:36.290Z,1006.44
2022-09-17T00:57:36.288Z,1006.41
2022-09-17T00:58:40.464Z,1006.44
2022-09-17T00:59:38.001Z,1006.41
2022-09-17T01:00:35.658Z,1006.40
2022-09-17T01:01:35.806Z,1006.41
2022-09-17T01:02:35.637Z,1006.45
2022-09-17T01:03:36.212Z,1006.41
2022-09-17T01:04:35.511Z,1006.47
2022-09-17T01:05:35.502Z,1006.42
2022-09-17T01:06:35.518Z,1006.40
2022-09-17T01:07:35.523Z,1006.41
2022-09-17T01:08:35.503Z,1006.45
2022-09-17T01:09:36.156Z,1006.43
2022-09-17T01:10:35.504Z,1006.38
2022-09-17T01:11:35.455Z,1006.38
2022-09-17T01:12:36.127Z,1006.36
2022-09-17T01:13:35.465Z,1006.37
2022-09-17T01:14:36.096Z,1006.40
2022-09-17T01:15:35.405Z,1006.41
2022-09-17T01:16:35.456Z,1006.38
2022-09-17T01:17:36.086Z,1006.36
2022-09-17T01:18:36.051Z,1006.32
2022-09-17T01:19:36.044Z,1006.45
2022-09-17T01:20:36.036Z,1006.41
2022-09-17T01:21:35.329Z,1006.46
2022-09-17T01:22:36.818Z,1006.46
2022-09-17T01:23:35.998Z,1006.43
2022-09-17T01:24:35.991Z,1006.46
2022-09-17T01:25:35.947Z,1006.47
2022-09-17T01:26:35.301Z,1006.47
2022-09-17T01:27:35.352Z,1006.44
2022-09-17T01:28:36.678Z,1006.48
2022-09-17T01:29:36.009Z,1006.48
2022-09-17T01:30:35.351Z,1006.49
2022-09-17T01:31:36.704Z,1006.48
2022-09-17T01:32:35.445Z,1006.47
2022-09-17T01:33:35.211Z,1006.43
2022-09-17T01:34:35.891Z,1006.42
2022-09-17T01:35:35.871Z,1006.44
2022-09-17T01:36:35.261Z,1006.48
2022-09-17T01:37:35.153Z,1006.50
2022-09-17T01:38:35.841Z,1006.48
2022-09-17T01:39:35.142Z,1006.49
2022-09-17T01:40:35.177Z,1006.55
2022-09-17T01:41:35.112Z,1006.55
2022-09-17T01:42:35.864Z,1006.53
2022-09-17T01:43:35.791Z,1006.56
2022-09-17T01:44:35.772Z,1006.62
2022-09-17T01:45:35.074Z,1006.63
2022-09-17T01:46:35.766Z,1006.55
2022-09-17T01:47:35.735Z,1006.62
2022-09-17T01:48:35.806Z,1006.63
2022-09-17T01:49:35.024Z,1006.63
2022-09-17T01:50:35.033Z,1006.59
2022-09-17T01:51:35.698Z,1006.66
2022-09-17T01:52:35.090Z,1006.64
2022-09-17T01:53:35.423Z,1006.64
2022-09-17T01:54:39.208Z,1006.63
2022-09-17T01:55:36.667Z,1006.65
2022-09-17T01:56:35.660Z,1006.64
2022-09-17T01:57:35.118Z,1006.61
2022-09-17T01:58:34.974Z,1006.66
2022-09-17T01:59:35.135Z,1006.63
2022-09-17T02:00:35.063Z,1006.66
2022-09-17T02:01:34.992Z,1006.60
2022-09-17T02:02:34.886Z,1006.61
2022-09-17T02:03:34.905Z,1006.63
2022-09-17T02:04:34.875Z,1006.67
2022-09-17T02:05:35.575Z,1006.68
2022-09-17T02:06:35.532Z,1006.65
2022-09-17T02:07:35.530Z,1006.60
2022-09-17T02:08:35.520Z,1006.56
2022-09-17T02:09:35.515Z,1006.63
2022-09-17T02:10:36.248Z,1006.58
2022-09-17T02:11:35.488Z,1006.59
2022-09-17T02:12:34.901Z,1006.58
2022-09-17T02:13:35.457Z,1006.55
2022-09-17T02:14:35.463Z,1006.56
2022-09-17T02:15:34.767Z,1006.60
2022-09-17T02:16:35.527Z,1006.56
2022-09-17T02:17:34.788Z,1006.64
2022-09-17T02:18:35.491Z,1006.59
2022-09-17T02:19:34.730Z,1006.60
2022-09-17T02:20:35.401Z,1006.54
2022-09-17T02:21:34.711Z,1006.56
2022-09-17T02:22:34.690Z,1006.52
2022-09-17T02:23:35.361Z,1006.52
2022-09-17T02:24:35.333Z,1006.53
2022-09-17T02:25:34.640Z,1006.55
2022-09-17T02:26:34.650Z,1006.52
2022-09-17T02:27:35.313Z,1006.54
2022-09-17T02:28:36.052Z,1006.54
2022-09-17T02:29:35.309Z,1006.58
2022-09-17T02:30:35.690Z,1006.57
2022-09-17T02:31:34.620Z,1006.61
2022-09-17T02:32:34.601Z,1006.62
2022-09-17T02:33:35.255Z,1006.56
2022-09-17T02:34:34.555Z,1006.60
2022-09-17T02:35:34.549Z,1006.52
2022-09-17T02:36:36.034Z,1006.56
2022-09-17T02:37:35.467Z,1006.59
2022-09-17T02:38:34.516Z,1006.64
2022-09-17T02:39:35.201Z,1006.68
2022-09-17T02:40:35.244Z,1006.66
2022-09-17T02:41:35.257Z,1006.65
2022-09-17T02:42:34.517Z,1006.68
2022-09-17T02:43:34.464Z,1006.61
2022-09-17T02:44:34.513Z,1006.65
2022-09-17T02:45:35.125Z,1006.65
2022-09-17T02:46:34.441Z,1006.61
2022-09-17T02:47:35.094Z,1006.62
2022-09-17T02:48:35.337Z,1006.66
2022-09-17T02:49:34.405Z,1006.58
2022-09-17T02:50:34.392Z,1006.61
2022-09-17T02:51:35.058Z,1006.63
2022-09-17T02:52:35.037Z,1006.64
2022-09-17T02:53:35.120Z,1006.58
2022-09-17T02:54:35.019Z,1006.64
2022-09-17T02:55:35.015Z,1006.63
2022-09-17T02:56:35.027Z,1006.63
2022-09-17T02:57:34.338Z,1006.61
2022-09-17T02:58:34.977Z,1006.64
2022-09-17T02:59:35.757Z,1006.67
2022-09-17T03:00:34.328Z,1006.63
2022-09-17T03:01:35.017Z,1006.68
2022-09-17T03:02:35.119Z,1006.68
2022-09-17T03:03:34.933Z,1006.70
2022-09-17T03:04:35.699Z,1006.69
2022-09-17T03:05:34.889Z,1006.75
2022-09-17T03:06:34.898Z,1006.71
2022-09-17T03:07:34.881Z,1006.71
2022-09-17T03:08:34.862Z,1006.74
2022-09-17T03:09:34.875Z,1006.70
2022-09-17T03:10:34.165Z,1006.70
2022-09-17T03:11:34.830Z,1006.71
2022-09-17T03:12:34.840Z,1006.73
2022-09-17T03:13:34.824Z,1006.71
2022-09-17T03:14:34.810Z,1006.73
2022-09-17T03:15:34.801Z,1006.72
2022-09-17T03:16:34.489Z,1006.72
2022-09-17T03:17:34.186Z,1006.73
2022-09-17T03:18:34.101Z,1006.78
2022-09-17T03:19:34.072Z,1006.78
2022-09-17T03:20:34.103Z,1006.74
2022-09-17T03:21:34.732Z,1006.77
2022-09-17T03:22:34.763Z,1006.78
2022-09-17T03:23:34.372Z,1006.76
2022-09-17T03:24:35.473Z,1006.76
2022-09-17T03:25:34.173Z,1006.73
2022-09-17T03:26:34.676Z,1006.71
2022-09-17T03:27:34.005Z,1006.74
2022-09-17T03:28:33.967Z,1006.74
2022-09-17T03:29:34.004Z,1006.72
2022-09-17T03:30:34.634Z,1006.70
2022-09-17T03:31:35.482Z,1006.68
2022-09-17T03:32:34.606Z,1006.70
2022-09-17T03:33:34.614Z,1006.75
2022-09-17T03:34:34.586Z,1006.76
2022-09-17T03:35:35.085Z,1006.77
2022-09-17T03:36:34.575Z,1006.79
2022-09-17T03:37:33.876Z,1006.82
2022-09-17T03:38:34.552Z,1006.86
2022-09-17T03:39:34.537Z,1006.86
2022-09-17T03:40:33.870Z,1006.81
2022-09-17T03:41:33.837Z,1006.83
2022-09-17T03:42:34.507Z,1006.83
2022-09-17T03:43:34.497Z,1006.79
2022-09-17T03:44:34.483Z,1006.83
2022-09-17T03:45:34.469Z,1006.82
2022-09-17T03:46:34.489Z,1006.78
2022-09-17T03:47:34.449Z,1006.80
2022-09-17T03:48:34.433Z,1006.75
2022-09-17T03:49:34.428Z,1006.79
2022-09-17T03:50:34.459Z,1006.79
2022-09-17T03:51:34.426Z,1006.82
2022-09-17T03:52:33.776Z,1006.76
2022-09-17T03:53:33.680Z,1006.79
2022-09-17T03:54:34.369Z,1006.83
2022-09-17T03:55:34.361Z,1006.83
2022-09-17T03:56:34.355Z,1006.89
2022-09-17T03:57:33.666Z,1006.90
2022-09-17T03:58:33.753Z,1006.90
2022-09-17T03:59:33.650Z,1006.95
2022-09-17T04:00:35.576Z,1006.89
2022-09-17T04:01:34.360Z,1006.92
2022-09-17T04:02:34.421Z,1006.95
2022-09-17T04:03:35.032Z,1006.94
2022-09-17T04:04:34.261Z,1006.85
2022-09-17T04:05:35.013Z,1006.91
2022-09-17T04:06:34.253Z,1006.95
2022-09-17T04:07:33.569Z,1006.94
2022-09-17T04:08:34.224Z,1006.95
2022-09-17T04:09:35.346Z,1006.92
2022-09-17T04:10:34.581Z,1006.98
2022-09-17T04:11:33.503Z,1007.00
2022-09-17T04:12:34.183Z,1006.97
2022-09-17T04:13:34.163Z,1007.04
2022-09-17T04:14:34.592Z,1007.02
2022-09-17T04:15:33.465Z,1007.05
2022-09-17T04:16:33.609Z,1007.10
2022-09-17T04:17:33.446Z,1007.04
2022-09-17T04:18:33.447Z,1007.09
2022-09-17T04:19:33.432Z,1007.02
2022-09-17T04:20:33.402Z,1007.05
2022-09-17T04:21:33.395Z,1007.10
2022-09-17T04:22:34.887Z,1007.06
2022-09-17T04:23:34.065Z,1007.04
2022-09-17T04:24:34.318Z,1007.09
2022-09-17T04:25:34.052Z,1007.06
2022-09-17T04:26:34.036Z,1007.04
2022-09-17T04:27:33.353Z,1007.06
2022-09-17T04:28:34.006Z,1007.05
2022-09-17T04:29:33.320Z,1007.05
2022-09-17T04:30:33.317Z,1007.03
2022-09-17T04:31:34.283Z,1007.04
2022-09-17T04:32:34.175Z,1007.03
2022-09-17T04:33:33.267Z,1006.98
2022-09-17T04:34:33.289Z,1006.98
2022-09-17T04:35:33.237Z,1006.98
2022-09-17T04:36:33.919Z,1006.94
2022-09-17T04:37:33.913Z,1006.97
2022-09-17T04:38:33.898Z,1007.00
2022-09-17T04:39:34.650Z,1007.01
2022-09-17T04:40:33.294Z,1006.99
2022-09-17T04:41:33.859Z,1007.05
2022-09-17T04:42:33.853Z,1007.08
2022-09-17T04:43:33.177Z,1007.09
2022-09-17T04:44:33.181Z,1007.08
2022-09-17T04:45:33.853Z,1007.07
2022-09-17T04:46:33.311Z,1007.09
2022-09-17T04:47:34.563Z,1007.11
2022-09-17T04:48:33.796Z,1007.09
2022-09-17T04:49:33.290Z,1007.13
2022-09-17T04:50:33.084Z,1007.11
2022-09-17T04:51:33.764Z,1007.12
2022-09-17T04:52:33.121Z,1007.09
2022-09-17T04:53:33.051Z,1007.09
2022-09-17T04:54:33.730Z,1007.12
2022-09-17T04:55:33.721Z,1007.13
2022-09-17T04:56:33.031Z,1007.14
2022-09-17T04:57:34.006Z,1007.15
2022-09-17T04:58:33.760Z,1007.11
2022-09-17T04:59:33.673Z,1007.13
2022-09-17T05:00:33.696Z,1007.16
2022-09-17T05:01:34.415Z,1007.13
2022-09-17T05:02:33.480Z,1007.14
2022-09-17T05:03:33.638Z,1007.10
2022-09-17T05:04:33.617Z,1007.11
2022-09-17T05:05:33.625Z,1007.14
2022-09-17T05:06:33.603Z,1007.13
2022-09-17T05:07:33.593Z,1007.11
2022-09-17T05:08:32.902Z,1007.10
2022-09-17T05:09:33.588Z,1007.14
2022-09-17T05:10:33.148Z,1007.12
2022-09-17T05:11:33.670Z,1007.15
2022-09-17T05:12:34.600Z,1007.18
2022-09-17T05:13:32.846Z,1007.21
2022-09-17T05:14:32.836Z,1007.22
2022-09-17T05:15:32.849Z,1007.23
2022-09-17T05:16:33.563Z,1007.22
2022-09-17T05:17:34.758Z,1007.26
2022-09-17T05:18:32.787Z,1007.25
2022-09-17T05:19:33.465Z,1007.25
2022-09-17T05:20:32.769Z,1007.23
2022-09-17T05:21:32.808Z,1007.28
2022-09-17T05:22:34.346Z,1007.21
2022-09-17T05:23:32.768Z,1007.28
2022-09-17T05:24:33.555Z,1007.25
2022-09-17T05:25:33.556Z,1007.29
2022-09-17T05:26:33.393Z,1007.29
2022-09-17T05:27:33.623Z,1007.30
2022-09-17T05:28:33.671Z,1007.24
2022-09-17T05:29:34.643Z,1007.23
2022-09-17T05:30:32.679Z,1007.25
2022-09-17T05:31:32.719Z,1007.29
2022-09-17T05:32:33.583Z,1007.25
2022-09-17T05:33:33.318Z,1007.28
2022-09-17T05:34:32.656Z,1007.36
2022-09-17T05:35:33.300Z,1007.36
2022-09-17T05:36:33.280Z,1007.36
2022-09-17T05:37:33.282Z,1007.44
2022-09-17T05:38:34.416Z,1007.45
2022-09-17T05:39:33.252Z,1007.50
2022-09-17T05:40:33.534Z,1007.47
2022-09-17T05:41:33.232Z,1007.46
2022-09-17T05:42:33.515Z,1007.46
2022-09-17T05:43:33.215Z,1007.48
2022-09-17T05:44:33.442Z,1007.52
2022-09-17T05:45:33.934Z,1007.53
2022-09-17T05:46:32.608Z,1007.52
2022-09-17T05:47:32.525Z,1007.50
2022-09-17T05:48:33.153Z,1007.54
2022-09-17T05:49:34.435Z,1007.49
2022-09-17T05:50:33.147Z,1007.47
2022-09-17T05:51:33.132Z,1007.49
2022-09-17T05:52:33.114Z,1007.49
2022-09-17T05:53:32.495Z,1007.51
2022-09-17T05:54:33.100Z,1007.50
2022-09-17T05:55:32.404Z,1007.54
2022-09-17T05:56:34.436Z,1007.53
2022-09-17T05:57:33.317Z,1007.48
2022-09-17T05:58:33.478Z,1007.54
2022-09-17T05:59:34.305Z,1007.50
2022-09-17T06:00:33.288Z,1007.53
2022-09-17T06:01:34.427Z,1007.52
2022-09-17T06:02:33.028Z,1007.62
2022-09-17T06:03:32.329Z,1007.58
2022-09-17T06:04:35.037Z,1007.61
2022-09-17T06:05:33.218Z,1007.62
2022-09-17T06:06:33.730Z,1007.63
2022-09-17T06:07:32.269Z,1007.64
2022-09-17T06:08:32.937Z,1007.56
2022-09-17T06:09:32.260Z,1007.63
2022-09-17T06:10:32.907Z,1007.63
2022-09-17T06:11:33.168Z,1007.61
2022-09-17T06:12:32.230Z,1007.62
2022-09-17T06:13:34.158Z,1007.64
2022-09-17T06:14:32.880Z,1007.66
2022-09-17T06:15:33.142Z,1007.66
2022-09-17T06:16:32.351Z,1007.67
2022-09-17T06:17:32.848Z,1007.76
2022-09-17T06:18:33.098Z,1007.75
2022-09-17T06:19:32.820Z,1007.77
2022-09-17T06:20:33.085Z,1007.73
2022-09-17T06:21:33.562Z,1007.77
2022-09-17T06:22:32.943Z,1007.81
2022-09-17T06:23:32.111Z,1007.81
2022-09-17T06:24:32.082Z,1007.82
2022-09-17T06:25:32.751Z,1007.84
2022-09-17T06:26:32.745Z,1007.91
2022-09-17T06:27:33.014Z,1007.82
2022-09-17T06:28:32.713Z,1007.83
2022-09-17T06:29:32.086Z,1007.84
2022-09-17T06:30:32.022Z,1007.87
2022-09-17T06:31:32.733Z,1007.95
2022-09-17T06:32:32.061Z,1007.94
2022-09-17T06:33:32.674Z,1007.93
2022-09-17T06:34:32.933Z,1007.98
2022-09-17T06:35:32.643Z,1007.94
2022-09-17T06:36:31.978Z,1007.97
2022-09-17T06:37:32.638Z,1007.92
2022-09-17T06:38:32.613Z,1007.88
2022-09-17T06:39:31.920Z,1007.89
2022-09-17T06:40:32.709Z,1007.93
2022-09-17T06:41:31.905Z,1007.96
2022-09-17T06:42:32.572Z,1007.90
2022-09-17T06:43:31.874Z,1007.84
2022-09-17T06:44:32.558Z,1007.88
2022-09-17T06:45:31.884Z,1007.92
2022-09-17T06:46:31.981Z,1007.95
2022-09-17T06:47:32.766Z,1007.96
2022-09-17T06:48:31.835Z,1008.00
2022-09-17T06:49:31.867Z,1008.00
2022-09-17T06:50:32.477Z,1007.94
2022-09-17T06:51:31.833Z,1007.92
2022-09-17T06:52:32.477Z,1007.94
2022-09-17T06:53:32.448Z,1007.97
2022-09-17T06:54:32.440Z,1007.96
2022-09-17T06:55:33.696Z,1007.95
2022-09-17T06:56:33.173Z,1007.89
2022-09-17T06:57:32.659Z,1007.94
2022-09-17T06:58:32.380Z,1008.04
2022-09-17T06:59:32.396Z,1008.05
2022-09-17T07:00:33.640Z,1008.04
2022-09-17T07:01:31.744Z,1008.06
2022-09-17T07:02:32.697Z,1008.02
2022-09-17T07:03:33.610Z,1007.92
2022-09-17T07:04:33.663Z,1007.95
2022-09-17T07:05:32.333Z,1007.93
2022-09-17T07:06:32.311Z,1007.99
2022-09-17T07:07:32.302Z,1007.95
2022-09-17T07:08:31.651Z,1007.96
2022-09-17T07:09:32.555Z,1007.98
2022-09-17T07:10:32.664Z,1007.91
2022-09-17T07:11:31.667Z,1007.98
2022-09-17T07:12:32.243Z,1008.05
2022-09-17T07:13:33.504Z,1008.05
2022-09-17T07:14:31.552Z,1008.09
2022-09-17T07:15:32.218Z,1008.08
2022-09-17T07:16:32.265Z,1008.12
2022-09-17T07:17:32.200Z,1008.11
2022-09-17T07:18:32.189Z,1008.17
2022-09-17T07:19:32.177Z,1008.11
2022-09-17T07:20:32.171Z,1008.24
2022-09-17T07:21:31.487Z,1008.18
2022-09-17T07:22:33.449Z,1008.17
2022-09-17T07:23:32.386Z,1008.22
2022-09-17T07:24:33.406Z,1008.25
2022-09-17T07:25:32.366Z,1008.28
2022-09-17T07:26:31.419Z,1008.30
2022-09-17T07:27:32.077Z,1008.36
2022-09-17T07:28:31.426Z,1008.41
2022-09-17T07:29:32.059Z,1008.38
2022-09-17T07:30:32.838Z,1008.32
2022-09-17T07:31:31.394Z,1008.36
2022-09-17T07:32:33.089Z,1008.29
2022-09-17T07:33:32.017Z,1008.32
2022-09-17T07:34:31.359Z,1008.37
2022-09-17T07:35:31.320Z,1008.40
2022-09-17T07:36:31.990Z,1008.41
2022-09-17T07:37:31.970Z,1008.41
2022-09-17T07:38:31.965Z,1008.46
2022-09-17T07:39:32.283Z,1008.43
2022-09-17T07:40:31.460Z,1008.50
2022-09-17T07:41:31.371Z,1008.50
2022-09-17T07:42:31.762Z,1008.56
2022-09-17T07:43:31.224Z,1008.53
2022-09-17T07:44:31.253Z,1008.57
2022-09-17T07:45:31.295Z,1008.56
2022-09-17T07:46:31.905Z,1008.55
2022-09-17T07:47:31.871Z,1008.52
2022-09-17T07:48:31.871Z,1008.51
2022-09-17T07:49:31.175Z,1008.52
2022-09-17T07:50:31.183Z,1008.75
2022-09-17T07:51:31.175Z,1008.77
2022-09-17T07:52:31.186Z,1008.67
2022-09-17T07:53:31.806Z,1008.68
2022-09-17T07:54:31.137Z,1008.75
2022-09-17T07:55:33.109Z,1008.73
2022-09-17T07:56:31.126Z,1008.78
2022-09-17T07:57:31.098Z,1008.71
2022-09-17T07:58:31.108Z,1008.79
2022-09-17T07:59:31.097Z,1008.83
2022-09-17T08:00:32.830Z,1008.94
2022-09-17T08:01:31.059Z,1008.95
2022-09-17T08:02:31.049Z,1008.92
2022-09-17T08:03:31.699Z,1008.75
2022-09-17T08:04:31.163Z,1008.71
2022-09-17T08:05:30.990Z,1008.67
2022-09-17T08:06:32.470Z,1008.63
2022-09-17T08:07:31.889Z,1008.68
2022-09-17T08:08:30.982Z,1008.64
2022-09-17T08:09:31.630Z,1008.62
2022-09-17T08:10:31.931Z,1008.68
2022-09-17T08:11:54.418Z,1008.71
2022-09-17T08:12:32.843Z,1008.75
2022-09-17T08:13:30.941Z,1008.65
2022-09-17T08:14:31.065Z,1008.63
2022-09-17T08:15:31.570Z,1008.65
2022-09-17T08:16:31.034Z,1008.56
2022-09-17T08:17:30.892Z,1008.60
2022-09-17T08:18:30.912Z,1008.59
2022-09-17T08:19:30.886Z,1008.59
2022-09-17T08:20:30.886Z,1008.51
2022-09-17T08:21:30.850Z,1008.55
2022-09-17T08:22:30.935Z,1008.54
2022-09-17T08:23:30.874Z,1008.54
2022-09-17T08:24:30.818Z,1008.49
2022-09-17T08:25:31.478Z,1008.52
2022-09-17T08:26:30.796Z,1008.50
2022-09-17T08:27:30.778Z,1008.57
2022-09-17T08:28:30.819Z,1008.57
2022-09-17T08:29:35.004Z,1008.58
2022-09-17T08:30:30.729Z,1008.57
2022-09-17T08:31:31.422Z,1008.57
2022-09-17T08:32:32.177Z,1008.57
2022-09-17T08:33:31.372Z,1008.51
2022-09-17T08:34:31.431Z,1008.50
2022-09-17T08:35:30.671Z,1008.51
2022-09-17T08:36:31.349Z,1008.50
2022-09-17T08:37:30.680Z,1008.53
2022-09-17T08:38:35.707Z,1008.49
2022-09-17T08:39:31.683Z,1008.57
2022-09-17T08:40:31.352Z,1008.61
2022-09-17T08:41:31.293Z,1008.36
2022-09-17T08:42:30.635Z,1008.58
2022-09-17T08:43:31.288Z,1008.29
2022-09-17T08:44:30.588Z,1008.22
2022-09-17T08:45:32.183Z,1008.22
2022-09-17T08:46:31.314Z,1008.56
2022-09-17T08:47:30.545Z,1008.52
2022-09-17T08:48:30.555Z,1008.54
2022-09-17T08:49:31.225Z,1008.46
2022-09-17T08:50:30.548Z,1008.51
2022-09-17T08:51:30.578Z,1008.53
2022-09-17T08:52:31.179Z,1008.47
2022-09-17T08:53:30.508Z,1008.48
2022-09-17T08:54:30.490Z,1008.50
2022-09-17T08:55:31.558Z,1008.46
2022-09-17T08:56:30.490Z,1008.50
2022-09-17T08:57:30.487Z,1008.49
2022-09-17T08:58:31.108Z,1008.42
2022-09-17T08:59:30.525Z,1008.44
2022-09-17T09:00:30.418Z,1008.19
2022-09-17T09:01:31.104Z,1008.17
2022-09-17T09:02:30.490Z,1008.30
2022-09-17T09:03:31.150Z,1008.25
2022-09-17T09:04:30.360Z,1008.29
2022-09-17T09:05:31.310Z,1008.31
2022-09-17T09:06:30.351Z,1008.28
2022-09-17T09:07:30.362Z,1008.24
2022-09-17T09:08:30.321Z,1008.36
2022-09-17T09:09:31.060Z,1008.29
2022-09-17T09:10:31.012Z,1008.26
2022-09-17T09:11:31.224Z,1008.35
2022-09-17T09:12:30.301Z,1008.28
2022-09-17T09:13:30.944Z,1008.33
2022-09-17T09:14:30.933Z,1008.34
2022-09-17T09:15:30.312Z,1008.34
2022-09-17T09:16:30.301Z,1008.34
2022-09-17T09:17:30.217Z,1008.26
2022-09-17T09:18:30.236Z,1008.27
2022-09-17T09:19:31.144Z,1008.32
2022-09-17T09:20:30.313Z,1008.17
2022-09-17T09:21:30.850Z,1008.22
2022-09-17T09:22:30.906Z,1008.23
2022-09-17T09:23:30.167Z,1008.19
2022-09-17T09:24:31.589Z,1008.15
2022-09-17T09:25:30.819Z,1008.17
2022-09-17T09:26:30.813Z,1008.11
2022-09-17T09:27:30.218Z,1008.10
2022-09-17T09:28:31.539Z,1008.16
2022-09-17T09:29:30.769Z,1008.12
2022-09-17T09:30:30.778Z,1008.25
2022-09-17T09:31:30.091Z,1008.13
2022-09-17T09:32:30.061Z,1008.12
2022-09-17T09:33:30.169Z,1008.25
2022-09-17T09:34:30.278Z,1008.16
2022-09-17T09:35:30.703Z,1008.22
2022-09-17T09:36:30.010Z,1008.15
2022-09-17T09:37:30.111Z,1008.14
2022-09-17T09:38:30.022Z,1008.10
2022-09-17T09:39:32.455Z,1008.11
2022-09-17T09:40:31.011Z,1008.23
2022-09-17T09:41:30.644Z,1008.17
2022-09-17T09:42:29.944Z,1008.23
2022-09-17T09:43:52.655Z,1008.20
2022-09-17T09:44:30.975Z,1008.25
2022-09-17T09:45:29.922Z,1008.27
2022-09-17T09:46:30.608Z,1008.26
2022-09-17T09:47:30.584Z,1008.24
2022-09-17T09:48:30.891Z,1008.26
2022-09-17T09:49:30.559Z,1008.21
2022-09-17T09:50:48.384Z,1008.20
2022-09-17T09:51:30.865Z,1008.20
2022-09-17T09:52:30.841Z,1008.27
2022-09-17T09:53:30.506Z,1008.20
2022-09-17T09:54:30.509Z,1008.15
2022-09-17T09:55:30.487Z,1008.13
2022-09-17T09:56:29.929Z,1008.20
2022-09-17T09:57:29.848Z,1008.25
2022-09-17T09:58:29.810Z,1008.35
2022-09-17T09:59:30.060Z,1008.35
2022-09-17T10:00:30.440Z,1008.28
2022-09-17T10:01:29.924Z,1008.24
2022-09-17T10:02:29.941Z,1008.27
2022-09-17T10:03:29.742Z,1008.27
2022-09-17T10:04:29.778Z,1008.28
2022-09-17T10:05:30.380Z,1008.20
2022-09-17T10:06:29.760Z,1008.19
2022-09-17T10:07:29.690Z,1008.22
2022-09-17T10:08:29.701Z,1008.24
2022-09-17T10:09:29.724Z,1008.33
2022-09-17T10:10:30.340Z,1008.28
2022-09-17T10:11:30.321Z,1008.28
2022-09-17T10:12:30.316Z,1008.21
2022-09-17T10:13:30.572Z,1008.16
2022-09-17T10:14:29.657Z,1008.11
2022-09-17T10:15:29.672Z,1008.22
2022-09-17T10:16:30.305Z,1008.16
2022-09-17T10:17:30.254Z,1008.11
2022-09-17T10:18:30.245Z,1008.13
2022-09-17T10:19:29.850Z,1008.16
2022-09-17T10:20:31.047Z,1008.10
2022-09-17T10:21:29.545Z,1008.03
2022-09-17T10:22:30.215Z,1008.04
2022-09-17T10:23:30.190Z,1008.06
2022-09-17T10:24:30.456Z,1008.04
2022-09-17T10:25:29.493Z,1007.96
2022-09-17T10:26:29.582Z,1007.98
2022-09-17T10:27:29.550Z,1008.00
2022-09-17T10:28:29.475Z,1007.94
2022-09-17T10:29:30.126Z,1008.04
2022-09-17T10:30:29.451Z,1007.98
2022-09-17T10:31:29.468Z,1008.05
2022-09-17T10:32:30.099Z,1008.01
2022-09-17T10:33:29.458Z,1008.03
2022-09-17T10:34:30.069Z,1008.11
2022-09-17T10:35:30.060Z,1008.07
2022-09-17T10:36:29.442Z,1008.11
2022-09-17T10:37:29.370Z,1008.03
2022-09-17T10:38:30.021Z,1008.14
2022-09-17T10:39:29.391Z,1008.06
2022-09-17T10:40:30.026Z,1008.07
2022-09-17T10:41:29.342Z,1008.18
2022-09-17T10:42:29.300Z,1008.17
2022-09-17T10:43:29.979Z,1008.38
2022-09-17T10:44:30.032Z,1008.44
2022-09-17T10:45:29.278Z,1008.41
2022-09-17T10:46:29.977Z,1008.51
2022-09-17T10:47:29.316Z,1008.49
2022-09-17T10:48:29.940Z,1008.44
2022-09-17T10:49:29.256Z,1008.39
2022-09-17T10:50:29.977Z,1008.22
2022-09-17T10:51:29.236Z,1008.28
2022-09-17T10:52:29.894Z,1008.22
2022-09-17T10:53:29.179Z,1008.18
2022-09-17T10:54:29.875Z,1008.17
2022-09-17T10:55:29.357Z,1008.21
2022-09-17T10:56:29.216Z,1008.21
2022-09-17T10:57:29.825Z,1008.15
2022-09-17T10:58:29.257Z,1008.09
2022-09-17T10:59:29.107Z,1008.09
2022-09-17T11:00:29.787Z,1008.04
2022-09-17T11:01:29.855Z,1008.03
2022-09-17T11:02:29.320Z,1008.05
2022-09-17T11:03:29.116Z,1007.99
2022-09-17T11:04:29.128Z,1008.01
2022-09-17T11:05:29.147Z,1007.98
2022-09-17T11:06:29.099Z,1007.95
2022-09-17T11:07:29.716Z,1007.93
2022-09-17T11:08:29.119Z,1007.84
2022-09-17T11:09:29.939Z,1007.87
2022-09-17T11:10:29.692Z,1007.84
2022-09-17T11:11:29.680Z,1007.80
2022-09-17T11:12:29.676Z,1007.87
2022-09-17T11:13:30.404Z,1007.85
2022-09-17T11:14:29.631Z,1007.79
2022-09-17T11:15:28.941Z,1007.88
2022-09-17T11:16:29.073Z,1007.81
2022-09-17T11:17:29.612Z,1007.83
2022-09-17T11:18:29.603Z,1007.82
2022-09-17T11:19:29.603Z,1007.86
2022-09-17T11:20:29.563Z,1007.83
2022-09-17T11:21:29.565Z,1007.84
2022-09-17T11:22:29.569Z,1007.87
2022-09-17T11:23:29.163Z,1007.84
2022-09-17T11:24:29.537Z,1007.88
2022-09-17T11:25:29.526Z,1007.89
2022-09-17T11:26:29.605Z,1007.88
2022-09-17T11:27:28.822Z,1007.86
2022-09-17T11:28:28.824Z,1007.89
2022-09-17T11:29:29.483Z,1007.82
2022-09-17T11:30:28.795Z,1007.80
2022-09-17T11:31:28.905Z,1007.79
2022-09-17T11:32:28.927Z,1007.83
2022-09-17T11:33:28.756Z,1007.77
2022-09-17T11:34:28.754Z,1007.74
2022-09-17T11:35:29.418Z,1007.73
2022-09-17T11:36:28.763Z,1007.78
2022-09-17T11:37:29.389Z,1007.79
2022-09-17T11:38:29.464Z,1007.86
2022-09-17T11:39:28.750Z,1007.84
2022-09-17T11:40:29.704Z,1007.87
2022-09-17T11:41:28.694Z,1007.83
2022-09-17T11:42:29.336Z,1007.81
2022-09-17T11:43:28.647Z,1007.82
2022-09-17T11:44:29.619Z,1007.74
2022-09-17T11:45:29.308Z,1007.72
2022-09-17T11:46:29.337Z,1007.71
2022-09-17T11:47:29.282Z,1007.65
2022-09-17T11:48:29.282Z,1007.64
2022-09-17T11:49:29.261Z,1007.63
2022-09-17T11:50:30.082Z,1007.67
2022-09-17T11:51:28.583Z,1007.68
2022-09-17T11:52:28.583Z,1007.72
2022-09-17T11:53:29.234Z,1007.72
2022-09-17T11:54:29.225Z,1007.71
2022-09-17T11:55:29.193Z,1007.71
2022-09-17T11:56:28.564Z,1007.80
2022-09-17T11:57:28.881Z,1007.77
2022-09-17T11:58:29.929Z,1007.76
2022-09-17T11:59:28.545Z,1007.73
2022-09-17T12:00:29.144Z,1007.68
2022-09-17T12:01:29.945Z,1007.73
2022-09-17T12:02:29.958Z,1007.70
2022-09-17T12:03:29.121Z,1007.71
2022-09-17T12:04:29.110Z,1007.72
2022-09-17T12:05:29.392Z,1007.71